createdAt,value
2019-04-11T00:01:05.981Z,15.15
2019-04-11T00:06:12.688Z,14.00
2019-04-11T00:11:19.848Z,13.55
2019-04-11T00:16:26.153Z,14.50
2019-04-11T00:21:32.954Z,18.42
2019-04-11T00:26:40.211Z,20.77
2019-04-11T00:31:47.943Z,20.68
2019-04-11T00:36:54.883Z,18.87
2019-04-11T00:42:01.947Z,18.82
2019-04-11T00:47:08.921Z,14.07
2019-04-11T00:52:16.044Z,13.15
2019-04-11T00:57:23.059Z,13.95
2019-04-11T01:02:29.460Z,13.50
2019-04-11T01:07:35.552Z,13.45
2019-04-11T01:12:42.945Z,11.97
2019-04-11T01:17:49.727Z,11.38
2019-04-11T01:22:56.424Z,12.58
2019-04-11T01:28:02.870Z,12.07
2019-04-11T01:33:08.968Z,13.13
2019-04-11T01:38:16.438Z,16.15
2019-04-11T01:43:23.849Z,17.92
2019-04-11T01:48:36.730Z,15.32
2019-04-11T01:58:48.980Z,13.30
2019-04-11T02:04:13.934Z,12.07
2019-04-11T02:09:20.694Z,12.95
2019-04-11T02:14:27.886Z,13.05
2019-04-11T02:19:34.453Z,11.20
2019-04-11T02:24:48.001Z,12.00
2019-04-11T02:29:55.146Z,12.07
2019-04-11T02:35:04.358Z,11.60
2019-04-11T02:40:11.043Z,12.70
2019-04-11T02:45:34.014Z,15.10
2019-04-11T02:50:26.513Z,13.45
2019-04-11T02:55:35.628Z,12.70
2019-04-11T03:00:42.305Z,11.73
2019-04-11T03:05:50.727Z,11.20
2019-04-11T03:10:57.696Z,12.40
2019-04-11T03:16:19.065Z,11.40
2019-04-11T03:21:20.011Z,11.48
2019-04-11T03:26:22.636Z,11.00
2019-04-11T03:37:15.578Z,11.40
2019-04-11T03:42:04.011Z,12.07
2019-04-11T03:47:11.157Z,12.80
2019-04-11T03:52:03.391Z,11.85
2019-04-11T03:57:09.845Z,13.95
2019-04-11T04:02:17.018Z,15.00
2019-04-11T04:07:23.609Z,43.92
2019-04-11T04:12:31.366Z,14.47
2019-04-11T04:17:55.780Z,13.70
2019-04-11T04:23:12.396Z,14.65
2019-04-11T04:28:19.090Z,13.88
2019-04-11T04:33:26.578Z,13.20
2019-04-11T04:38:35.534Z,14.00
2019-04-11T04:43:44.316Z,13.72
2019-04-11T04:48:51.478Z,13.43
2019-04-11T04:53:59.576Z,12.55
2019-04-11T04:59:07.097Z,13.60
2019-04-11T05:04:13.975Z,14.43
2019-04-11T05:09:21.479Z,15.15
2019-04-11T05:14:29.424Z,16.30
2019-04-11T05:19:38.262Z,15.65
2019-04-11T05:24:45.367Z,14.47
2019-04-11T05:29:51.635Z,17.98
2019-04-11T05:34:58.495Z,15.60
2019-04-11T05:40:05.199Z,16.85
2019-04-11T05:45:17.158Z,16.30
2019-04-11T05:50:30.171Z,16.35
2019-04-11T05:55:41.420Z,16.70
2019-04-11T06:00:58.278Z,15.75
2019-04-11T06:06:24.662Z,17.25
2019-04-11T06:12:03.233Z,19.92
2019-04-11T06:17:12.061Z,21.50
2019-04-11T06:22:19.823Z,21.62
2019-04-11T06:27:38.499Z,20.43
2019-04-11T06:33:02.521Z,22.52
2019-04-11T06:38:43.479Z,24.95
2019-04-11T06:44:10.264Z,36.05
2019-04-11T06:49:26.688Z,41.68
2019-04-11T06:54:41.366Z,47.55
2019-04-11T06:59:48.414Z,50.33
2019-04-11T07:04:58.153Z,49.80
2019-04-11T07:10:06.768Z,50.70
2019-04-11T07:15:18.943Z,53.30
2019-04-11T07:21:02.873Z,51.13
2019-04-11T07:26:37.292Z,54.38
2019-04-11T07:32:00.879Z,50.95
2019-04-11T07:37:32.610Z,53.78
2019-04-11T07:43:03.781Z,55.57
2019-04-11T07:48:12.904Z,59.70
2019-04-11T07:53:19.813Z,58.45
2019-04-11T07:58:40.561Z,57.93
2019-04-11T08:04:19.877Z,55.50
2019-04-11T08:09:39.719Z,55.30
2019-04-11T08:15:07.162Z,53.75
2019-04-11T08:20:31.236Z,49.60
2019-04-11T08:26:09.468Z,50.63
2019-04-11T08:31:27.091Z,46.83
2019-04-11T08:36:50.672Z,45.80
2019-04-11T08:42:12.854Z,44.83
2019-04-11T08:47:20.424Z,41.10
2019-04-11T08:52:46.511Z,42.08
2019-04-11T08:58:00.540Z,39.50
2019-04-11T09:03:31.539Z,35.92
2019-04-11T09:08:59.769Z,34.95
2019-04-11T09:14:24.287Z,34.55
2019-04-11T09:19:55.381Z,31.27
2019-04-11T09:25:30.411Z,30.55
2019-04-11T09:30:55.221Z,29.92
2019-04-11T09:36:03.829Z,31.57
2019-04-11T09:41:30.193Z,31.82
2019-04-11T09:46:59.164Z,30.00
2019-04-11T09:52:24.836Z,28.92
2019-04-11T09:57:34.857Z,28.35
2019-04-11T10:03:02.950Z,27.65
2019-04-11T10:08:19.024Z,26.75
2019-04-11T10:13:37.336Z,26.65
2019-04-11T10:18:59.935Z,25.35
2019-04-11T10:30:15.724Z,25.00
2019-04-11T10:35:56.725Z,25.35
2019-04-11T10:41:20.885Z,25.35
2019-04-11T10:46:41.683Z,25.15
2019-04-11T10:52:00.370Z,25.65
2019-04-11T10:57:28.131Z,24.30
2019-04-11T11:03:04.374Z,22.75
2019-04-11T11:08:27.692Z,22.67
2019-04-11T11:13:51.503Z,21.33
2019-04-11T11:19:46.602Z,22.45
2019-04-11T11:24:54.691Z,26.25
2019-04-11T11:30:29.581Z,23.70
2019-04-11T11:35:52.437Z,33.25
2019-04-11T11:41:16.415Z,31.48
2019-04-11T11:46:44.639Z,32.17
2019-04-11T11:52:11.315Z,31.30
2019-04-11T11:57:28.833Z,33.75
2019-04-11T12:02:51.990Z,29.82
2019-04-11T12:08:18.208Z,32.03
2019-04-11T12:13:47.346Z,29.45
2019-04-11T12:19:22.312Z,33.00
2019-04-11T12:24:40.543Z,32.40
2019-04-11T12:30:03.221Z,35.05
2019-04-11T12:35:26.280Z,39.75
2019-04-11T12:41:01.622Z,37.38
2019-04-11T12:46:30.048Z,38.42
2019-04-11T12:51:50.444Z,42.58
2019-04-11T12:57:27.846Z,42.83
2019-04-11T13:02:51.575Z,42.67
2019-04-11T13:08:19.591Z,46.33
2019-04-11T13:13:36.194Z,50.20
2019-04-11T13:19:04.035Z,49.70
2019-04-11T13:24:48.555Z,53.68
2019-04-11T13:30:13.611Z,48.75
2019-04-11T13:35:26.425Z,52.23
2019-04-11T13:41:03.283Z,47.15
2019-04-11T13:46:28.482Z,50.90
2019-04-11T13:51:56.474Z,48.00
2019-04-11T13:57:30.457Z,51.88
2019-04-11T14:02:51.267Z,50.43
2019-04-11T14:07:56.739Z,52.33
2019-04-11T14:13:03.513Z,52.78
2019-04-11T14:18:25.277Z,54.20
2019-04-11T14:23:56.389Z,51.88
2019-04-11T14:29:10.120Z,53.05
2019-04-11T14:34:35.448Z,53.05
2019-04-11T14:39:44.204Z,54.85
2019-04-11T14:44:50.753Z,53.50
2019-04-11T14:50:01.527Z,52.48
2019-04-11T14:55:08.781Z,52.30
2019-04-11T15:00:34.432Z,52.80
2019-04-11T15:05:53.649Z,50.70
2019-04-11T15:11:09.706Z,51.98
2019-04-11T15:16:33.851Z,50.15
2019-04-11T15:22:00.075Z,50.43
2019-04-11T15:27:23.944Z,50.83
2019-04-11T15:32:47.399Z,52.20
2019-04-11T15:38:24.400Z,52.20
2019-04-11T15:43:48.584Z,52.33
2019-04-11T15:49:20.398Z,47.70
2019-04-11T15:54:45.272Z,48.40
2019-04-11T16:00:19.239Z,50.05
2019-04-11T16:05:51.469Z,47.88
2019-04-11T16:11:15.378Z,46.23
2019-04-11T16:16:26.211Z,49.13
2019-04-11T16:21:40.503Z,46.65
2019-04-11T16:27:00.970Z,47.38
2019-04-11T16:32:11.686Z,48.38
2019-04-11T16:37:18.564Z,46.23
2019-04-11T16:42:53.792Z,46.53
2019-04-11T16:48:02.748Z,45.88
2019-04-11T16:53:11.551Z,45.78
2019-04-11T16:58:19.496Z,43.95
2019-04-11T17:03:25.685Z,44.23
2019-04-11T17:08:59.978Z,43.05
2019-04-11T17:14:07.266Z,43.52
2019-04-11T17:19:13.434Z,42.33
2019-04-11T17:24:19.516Z,41.13
2019-04-11T17:29:25.591Z,41.42
2019-04-11T17:34:32.452Z,42.10
2019-04-11T17:39:39.554Z,40.17
2019-04-11T17:44:45.778Z,40.08
2019-04-11T17:49:52.063Z,38.53
2019-04-11T17:55:00.130Z,38.08
2019-04-11T18:00:08.674Z,38.80
2019-04-11T18:05:16.704Z,38.20
2019-04-11T18:10:25.585Z,37.55
2019-04-11T18:15:31.749Z,37.80
2019-04-11T18:20:38.901Z,36.77
2019-04-11T18:25:45.188Z,37.42
2019-04-11T18:30:53.827Z,36.77
2019-04-11T18:36:01.866Z,36.88
2019-04-11T18:41:07.287Z,36.50
2019-04-11T18:46:13.911Z,37.28
2019-04-11T18:51:20.869Z,33.73
2019-04-11T18:56:28.160Z,33.23
2019-04-11T19:01:34.334Z,34.18
2019-04-11T19:06:42.641Z,35.88
2019-04-11T19:11:48.435Z,41.65
2019-04-11T19:16:54.564Z,49.25
2019-04-11T19:22:00.795Z,46.68
2019-04-11T19:27:06.993Z,36.53
2019-04-11T19:32:14.125Z,33.40
2019-04-11T19:37:20.306Z,32.90
2019-04-11T19:42:26.688Z,32.80
2019-04-11T19:47:32.882Z,31.65
2019-04-11T19:52:45.251Z,31.73
2019-04-11T19:57:47.225Z,31.37
2019-04-11T20:02:54.144Z,32.78
2019-04-11T20:08:01.301Z,32.05
2019-04-11T20:13:07.558Z,32.88
2019-04-11T20:18:13.657Z,31.70
2019-04-11T20:23:19.937Z,32.50
2019-04-11T20:28:26.881Z,32.28
2019-04-11T20:33:34.670Z,30.97
2019-04-11T20:38:41.204Z,34.10
2019-04-11T20:43:47.414Z,32.45
2019-04-11T20:48:54.689Z,31.37
2019-04-11T20:54:01.078Z,30.48
2019-04-11T20:59:10.029Z,30.48
2019-04-11T21:04:15.041Z,30.62
2019-04-11T21:09:21.730Z,30.52
2019-04-11T21:14:27.757Z,30.52
2019-04-11T21:19:34.104Z,30.97
2019-04-11T21:24:40.165Z,31.80
2019-04-11T21:29:46.011Z,30.85
2019-04-11T21:34:52.303Z,31.48
2019-04-11T21:39:58.498Z,31.55
2019-04-11T21:45:06.241Z,31.60
2019-04-11T21:50:13.244Z,30.80
2019-04-11T21:55:19.415Z,31.37
2019-04-11T22:00:36.351Z,30.88
2019-04-11T22:05:42.553Z,31.95
2019-04-11T22:10:48.807Z,30.57
2019-04-11T22:15:55.029Z,30.48
2019-04-11T22:21:01.159Z,30.48
2019-04-11T22:26:07.518Z,30.77
2019-04-11T22:31:13.665Z,30.62
2019-04-11T22:36:19.927Z,27.58
2019-04-11T22:41:26.129Z,27.20
2019-04-11T22:46:32.227Z,27.90
2019-04-11T22:51:42.710Z,29.52
2019-04-11T22:56:46.238Z,28.10
2019-04-11T23:01:53.865Z,28.15
2019-04-11T23:07:00.106Z,28.07
2019-04-11T23:12:06.143Z,28.35
2019-04-11T23:17:14.192Z,27.93
2019-04-11T23:22:20.234Z,26.37
2019-04-11T23:27:26.449Z,28.20
2019-04-11T23:32:32.586Z,27.70
2019-04-11T23:37:51.999Z,27.22
2019-04-11T23:42:58.287Z,28.85
2019-04-11T23:48:04.509Z,27.00
2019-04-11T23:53:10.614Z,25.97
2019-04-11T23:58:16.985Z,25.30
